sensor_id;sensor_type;location;lat;lon;timestamp;P1;durP1;ratioP1;P2;durP2;ratioP2
47053;SDS011;32811;52.382;5.270;2022-12-16T00:00:04;24.05;;;14.10;;
47053;SDS011;32811;52.382;5.270;2022-12-16T00:02:35;18.80;;;10.50;;
47053;SDS011;32811;52.382;5.270;2022-12-16T00:05:02;13.80;;;7.88;;
47053;SDS011;32811;52.382;5.270;2022-12-16T00:07:29;8.25;;;5.32;;
47053;SDS011;32811;52.382;5.270;2022-12-16T00:09:56;13.23;;;5.78;;
47053;SDS011;32811;52.382;5.270;2022-12-16T00:12:22;7.20;;;3.28;;
47053;SDS011;32811;52.382;5.270;2022-12-16T00:14:49;4.63;;;3.42;;
47053;SDS011;32811;52.382;5.270;2022-12-16T00:17:15;4.47;;;2.88;;
47053;SDS011;32811;52.382;5.270;2022-12-16T00:19:43;6.82;;;2.65;;
47053;SDS011;32811;52.382;5.270;2022-12-16T00:22:10;5.03;;;1.88;;
47053;SDS011;32811;52.382;5.270;2022-12-16T00:24:37;5.43;;;2.13;;
47053;SDS011;32811;52.382;5.270;2022-12-16T00:27:04;3.42;;;1.55;;
47053;SDS011;32811;52.382;5.270;2022-12-16T00:29:30;8.82;;;1.67;;
47053;SDS011;32811;52.382;5.270;2022-12-16T00:31:57;4.80;;;1.92;;
47053;SDS011;32811;52.382;5.270;2022-12-16T00:34:24;6.85;;;1.73;;
47053;SDS011;32811;52.382;5.270;2022-12-16T00:36:51;3.17;;;1.60;;
47053;SDS011;32811;52.382;5.270;2022-12-16T00:39:18;4.63;;;1.90;;
47053;SDS011;32811;52.382;5.270;2022-12-16T00:41:45;4.47;;;2.38;;
47053;SDS011;32811;52.382;5.270;2022-12-16T00:44:12;4.05;;;1.63;;
47053;SDS011;32811;52.382;5.270;2022-12-16T00:46:39;5.55;;;1.77;;
47053;SDS011;32811;52.382;5.270;2022-12-16T00:49:06;8.27;;;2.28;;
47053;SDS011;32811;52.382;5.270;2022-12-16T00:51:33;5.43;;;2.30;;
47053;SDS011;32811;52.382;5.270;2022-12-16T00:54:00;6.22;;;2.63;;
47053;SDS011;32811;52.382;5.270;2022-12-16T00:56:27;7.35;;;3.00;;
47053;SDS011;32811;52.382;5.270;2022-12-16T00:58:54;6.18;;;2.13;;
47053;SDS011;32811;52.382;5.270;2022-12-16T01:01:21;7.68;;;2.03;;
47053;SDS011;32811;52.382;5.270;2022-12-16T01:03:48;8.10;;;2.20;;
47053;SDS011;32811;52.382;5.270;2022-12-16T01:06:16;6.30;;;2.88;;
47053;SDS011;32811;52.382;5.270;2022-12-16T01:08:43;5.13;;;1.83;;
47053;SDS011;32811;52.382;5.270;2022-12-16T01:11:17;6.43;;;2.43;;
47053;SDS011;32811;52.382;5.270;2022-12-16T01:13:45;4.82;;;2.33;;
47053;SDS011;32811;52.382;5.270;2022-12-16T01:16:17;10.50;;;2.17;;
47053;SDS011;32811;52.382;5.270;2022-12-16T01:18:44;8.55;;;3.17;;
47053;SDS011;32811;52.382;5.270;2022-12-16T01:21:11;5.70;;;1.98;;
47053;SDS011;32811;52.382;5.270;2022-12-16T01:23:40;6.50;;;3.13;;
47053;SDS011;32811;52.382;5.270;2022-12-16T01:26:06;3.67;;;2.33;;
47053;SDS011;32811;52.382;5.270;2022-12-16T01:28:35;3.13;;;2.22;;
47053;SDS011;32811;52.382;5.270;2022-12-16T01:31:02;6.75;;;2.88;;
47053;SDS011;32811;52.382;5.270;2022-12-16T01:33:30;4.95;;;2.42;;
47053;SDS011;32811;52.382;5.270;2022-12-16T01:35:59;4.97;;;2.28;;
47053;SDS011;32811;52.382;5.270;2022-12-16T01:38:26;3.50;;;2.20;;
47053;SDS011;32811;52.382;5.270;2022-12-16T01:40:54;4.30;;;2.50;;
47053;SDS011;32811;52.382;5.270;2022-12-16T01:43:25;7.85;;;3.05;;
47053;SDS011;32811;52.382;5.270;2022-12-16T01:45:58;3.78;;;2.30;;
47053;SDS011;32811;52.382;5.270;2022-12-16T01:48:40;8.18;;;2.90;;
47053;SDS011;32811;52.382;5.270;2022-12-16T01:51:34;4.35;;;2.70;;
47053;SDS011;32811;52.382;5.270;2022-12-16T01:54:06;7.55;;;2.72;;
47053;SDS011;32811;52.382;5.270;2022-12-16T01:56:49;4.15;;;2.97;;
47053;SDS011;32811;52.382;5.270;2022-12-16T01:59:20;9.48;;;3.20;;
47053;SDS011;32811;52.382;5.270;2022-12-16T02:01:50;9.45;;;2.95;;
47053;SDS011;32811;52.382;5.270;2022-12-16T02:04:18;4.00;;;2.70;;
47053;SDS011;32811;52.382;5.270;2022-12-16T02:06:44;7.95;;;3.65;;
47053;SDS011;32811;52.382;5.270;2022-12-16T02:09:11;4.75;;;2.90;;
47053;SDS011;32811;52.382;5.270;2022-12-16T02:14:58;4.63;;;2.65;;
47053;SDS011;32811;52.382;5.270;2022-12-16T02:31:56;8.05;;;3.20;;
47053;SDS011;32811;52.382;5.270;2022-12-16T02:34:29;9.07;;;3.15;;
47053;SDS011;32811;52.382;5.270;2022-12-16T02:39:49;5.43;;;2.65;;
47053;SDS011;32811;52.382;5.270;2022-12-16T02:42:33;5.13;;;3.08;;
47053;SDS011;32811;52.382;5.270;2022-12-16T02:47:31;9.23;;;3.28;;
47053;SDS011;32811;52.382;5.270;2022-12-16T02:49:58;7.45;;;3.17;;
47053;SDS011;32811;52.382;5.270;2022-12-16T02:52:28;5.22;;;3.15;;
47053;SDS011;32811;52.382;5.270;2022-12-16T02:55:02;9.50;;;3.53;;
47053;SDS011;32811;52.382;5.270;2022-12-16T02:57:43;6.35;;;3.83;;
47053;SDS011;32811;52.382;5.270;2022-12-16T03:00:21;7.22;;;3.28;;
47053;SDS011;32811;52.382;5.270;2022-12-16T03:07:59;10.25;;;4.10;;
47053;SDS011;32811;52.382;5.270;2022-12-16T03:10:30;6.70;;;2.53;;
47053;SDS011;32811;52.382;5.270;2022-12-16T03:13:01;9.13;;;3.47;;
47053;SDS011;32811;52.382;5.270;2022-12-16T03:15:32;7.93;;;3.05;;
47053;SDS011;32811;52.382;5.270;2022-12-16T03:18:01;7.25;;;2.38;;
47053;SDS011;32811;52.382;5.270;2022-12-16T03:23:05;5.22;;;2.70;;
47053;SDS011;32811;52.382;5.270;2022-12-16T03:25:40;8.43;;;2.85;;
47053;SDS011;32811;52.382;5.270;2022-12-16T03:30:37;7.72;;;2.63;;
47053;SDS011;32811;52.382;5.270;2022-12-16T03:33:15;8.90;;;3.33;;
47053;SDS011;32811;52.382;5.270;2022-12-16T03:35:56;5.20;;;2.63;;
47053;SDS011;32811;52.382;5.270;2022-12-16T03:38:33;5.70;;;2.35;;
47053;SDS011;32811;52.382;5.270;2022-12-16T03:41:02;4.07;;;2.33;;
47053;SDS011;32811;52.382;5.270;2022-12-16T03:43:30;6.88;;;1.88;;
47053;SDS011;32811;52.382;5.270;2022-12-16T03:45:59;9.38;;;2.42;;
47053;SDS011;32811;52.382;5.270;2022-12-16T03:48:29;4.47;;;2.45;;
47053;SDS011;32811;52.382;5.270;2022-12-16T03:50:56;7.53;;;2.95;;
47053;SDS011;32811;52.382;5.270;2022-12-16T03:53:22;6.70;;;2.22;;
47053;SDS011;32811;52.382;5.270;2022-12-16T03:55:52;4.15;;;2.05;;
47053;SDS011;32811;52.382;5.270;2022-12-16T03:58:19;8.40;;;2.88;;
47053;SDS011;32811;52.382;5.270;2022-12-16T04:00:46;8.75;;;2.53;;
47053;SDS011;32811;52.382;5.270;2022-12-16T04:03:13;5.70;;;2.00;;
47053;SDS011;32811;52.382;5.270;2022-12-16T04:05:40;5.40;;;2.35;;
47053;SDS011;32811;52.382;5.270;2022-12-16T04:08:07;11.05;;;2.05;;
47053;SDS011;32811;52.382;5.270;2022-12-16T04:10:34;4.63;;;1.90;;
47053;SDS011;32811;52.382;5.270;2022-12-16T04:13:20;5.53;;;1.90;;
47053;SDS011;32811;52.382;5.270;2022-12-16T04:16:06;5.32;;;1.58;;
47053;SDS011;32811;52.382;5.270;2022-12-16T04:18:57;2.90;;;1.77;;
47053;SDS011;32811;52.382;5.270;2022-12-16T04:21:42;5.25;;;1.95;;
47053;SDS011;32811;52.382;5.270;2022-12-16T04:24:27;5.38;;;1.92;;
47053;SDS011;32811;52.382;5.270;2022-12-16T04:26:56;3.28;;;1.70;;
47053;SDS011;32811;52.382;5.270;2022-12-16T04:29:42;3.85;;;1.75;;
47053;SDS011;32811;52.382;5.270;2022-12-16T04:35:14;2.33;;;1.52;;
47053;SDS011;32811;52.382;5.270;2022-12-16T04:37:59;7.22;;;2.22;;
47053;SDS011;32811;52.382;5.270;2022-12-16T04:40:44;5.82;;;2.15;;
47053;SDS011;32811;52.382;5.270;2022-12-16T04:43:29;4.85;;;1.85;;
47053;SDS011;32811;52.382;5.270;2022-12-16T04:46:15;3.35;;;1.95;;
47053;SDS011;32811;52.382;5.270;2022-12-16T04:49:00;5.10;;;1.85;;
47053;SDS011;32811;52.382;5.270;2022-12-16T04:51:50;4.50;;;1.40;;
47053;SDS011;32811;52.382;5.270;2022-12-16T04:54:34;3.28;;;1.73;;
47053;SDS011;32811;52.382;5.270;2022-12-16T04:57:20;3.78;;;1.90;;
47053;SDS011;32811;52.382;5.270;2022-12-16T05:00:05;2.25;;;1.40;;
47053;SDS011;32811;52.382;5.270;2022-12-16T05:02:51;5.50;;;2.22;;
47053;SDS011;32811;52.382;5.270;2022-12-16T05:05:36;4.15;;;1.65;;
47053;SDS011;32811;52.382;5.270;2022-12-16T05:08:21;4.10;;;1.80;;
47053;SDS011;32811;52.382;5.270;2022-12-16T05:11:07;5.72;;;1.88;;
47053;SDS011;32811;52.382;5.270;2022-12-16T05:13:52;3.97;;;1.90;;
47053;SDS011;32811;52.382;5.270;2022-12-16T05:16:37;1.90;;;1.20;;
47053;SDS011;32811;52.382;5.270;2022-12-16T05:19:21;2.53;;;1.30;;
47053;SDS011;32811;52.382;5.270;2022-12-16T05:22:23;4.72;;;1.30;;
47053;SDS011;32811;52.382;5.270;2022-12-16T05:25:10;6.32;;;1.95;;
47053;SDS011;32811;52.382;5.270;2022-12-16T05:27:55;1.90;;;1.55;;
47053;SDS011;32811;52.382;5.270;2022-12-16T05:30:40;2.95;;;2.00;;
47053;SDS011;32811;52.382;5.270;2022-12-16T05:33:26;4.80;;;2.38;;
47053;SDS011;32811;52.382;5.270;2022-12-16T05:38:56;2.88;;;1.48;;
47053;SDS011;32811;52.382;5.270;2022-12-16T05:41:41;4.03;;;1.88;;
47053;SDS011;32811;52.382;5.270;2022-12-16T05:44:27;3.50;;;1.92;;
47053;SDS011;32811;52.382;5.270;2022-12-16T05:47:12;3.45;;;1.52;;
47053;SDS011;32811;52.382;5.270;2022-12-16T05:52:53;5.18;;;1.70;;
47053;SDS011;32811;52.382;5.270;2022-12-16T05:58:24;4.40;;;1.87;;
47053;SDS011;32811;52.382;5.270;2022-12-16T06:01:10;3.92;;;2.45;;
47053;SDS011;32811;52.382;5.270;2022-12-16T06:03:55;5.85;;;3.08;;
47053;SDS011;32811;52.382;5.270;2022-12-16T06:06:43;3.70;;;3.00;;
47053;SDS011;32811;52.382;5.270;2022-12-16T06:09:28;6.97;;;3.17;;
47053;SDS011;32811;52.382;5.270;2022-12-16T06:12:21;3.80;;;2.65;;
47053;SDS011;32811;52.382;5.270;2022-12-16T06:15:07;3.22;;;2.30;;
47053;SDS011;32811;52.382;5.270;2022-12-16T06:17:52;4.10;;;2.90;;
47053;SDS011;32811;52.382;5.270;2022-12-16T06:20:40;7.13;;;3.58;;
47053;SDS011;32811;52.382;5.270;2022-12-16T06:23:25;6.10;;;3.05;;
47053;SDS011;32811;52.382;5.270;2022-12-16T06:26:13;3.92;;;2.30;;
47053;SDS011;32811;52.382;5.270;2022-12-16T06:29:07;4.47;;;2.38;;
47053;SDS011;32811;52.382;5.270;2022-12-16T06:31:59;6.47;;;3.67;;
47053;SDS011;32811;52.382;5.270;2022-12-16T06:34:54;5.97;;;2.53;;
47053;SDS011;32811;52.382;5.270;2022-12-16T06:37:49;7.38;;;2.90;;
47053;SDS011;32811;52.382;5.270;2022-12-16T06:40:52;5.88;;;2.58;;
47053;SDS011;32811;52.382;5.270;2022-12-16T06:43:54;4.72;;;2.40;;
47053;SDS011;32811;52.382;5.270;2022-12-16T06:46:46;5.68;;;2.47;;
47053;SDS011;32811;52.382;5.270;2022-12-16T06:49:53;2.78;;;2.15;;
47053;SDS011;32811;52.382;5.270;2022-12-16T06:53:03;3.45;;;2.38;;
47053;SDS011;32811;52.382;5.270;2022-12-16T06:59:14;7.72;;;2.38;;
47053;SDS011;32811;52.382;5.270;2022-12-16T07:02:09;7.07;;;2.00;;
47053;SDS011;32811;52.382;5.270;2022-12-16T07:05:02;4.13;;;2.67;;
47053;SDS011;32811;52.382;5.270;2022-12-16T07:08:00;3.78;;;2.30;;
47053;SDS011;32811;52.382;5.270;2022-12-16T07:10:46;4.93;;;1.85;;
47053;SDS011;32811;52.382;5.270;2022-12-16T07:13:42;3.22;;;1.83;;
47053;SDS011;32811;52.382;5.270;2022-12-16T07:16:40;4.72;;;2.70;;
47053;SDS011;32811;52.382;5.270;2022-12-16T07:19:31;8.15;;;3.47;;
47053;SDS011;32811;52.382;5.270;2022-12-16T07:22:46;7.20;;;2.65;;
47053;SDS011;32811;52.382;5.270;2022-12-16T07:25:41;6.25;;;2.45;;
47053;SDS011;32811;52.382;5.270;2022-12-16T07:28:30;4.82;;;2.63;;
47053;SDS011;32811;52.382;5.270;2022-12-16T07:31:25;6.65;;;2.33;;
47053;SDS011;32811;52.382;5.270;2022-12-16T07:34:17;4.43;;;2.90;;
47053;SDS011;32811;52.382;5.270;2022-12-16T07:37:12;5.20;;;2.53;;
47053;SDS011;32811;52.382;5.270;2022-12-16T07:40:06;4.13;;;2.70;;
47053;SDS011;32811;52.382;5.270;2022-12-16T07:42:55;5.72;;;2.80;;
47053;SDS011;32811;52.382;5.270;2022-12-16T07:45:46;5.28;;;2.55;;
47053;SDS011;32811;52.382;5.270;2022-12-16T07:48:35;4.22;;;2.67;;
47053;SDS011;32811;52.382;5.270;2022-12-16T07:51:37;5.68;;;2.63;;
47053;SDS011;32811;52.382;5.270;2022-12-16T07:54:31;5.15;;;2.28;;
47053;SDS011;32811;52.382;5.270;2022-12-16T07:57:31;6.07;;;2.03;;
47053;SDS011;32811;52.382;5.270;2022-12-16T08:00:29;6.50;;;2.20;;
47053;SDS011;32811;52.382;5.270;2022-12-16T08:03:20;4.18;;;1.75;;
47053;SDS011;32811;52.382;5.270;2022-12-16T08:06:11;3.33;;;1.92;;
47053;SDS011;32811;52.382;5.270;2022-12-16T08:09:01;2.17;;;1.35;;
47053;SDS011;32811;52.382;5.270;2022-12-16T08:14:31;1.33;;;1.03;;
47053;SDS011;32811;52.382;5.270;2022-12-16T08:17:17;2.40;;;1.20;;
47053;SDS011;32811;52.382;5.270;2022-12-16T08:20:03;4.15;;;1.42;;
47053;SDS011;32811;52.382;5.270;2022-12-16T08:25:33;3.15;;;2.33;;
47053;SDS011;32811;52.382;5.270;2022-12-16T08:28:20;4.10;;;1.50;;
47053;SDS011;32811;52.382;5.270;2022-12-16T08:31:05;3.83;;;1.52;;
47053;SDS011;32811;52.382;5.270;2022-12-16T08:33:50;4.25;;;1.50;;
47053;SDS011;32811;52.382;5.270;2022-12-16T08:36:36;1.63;;;1.13;;
47053;SDS011;32811;52.382;5.270;2022-12-16T08:39:21;4.32;;;1.73;;
47053;SDS011;32811;52.382;5.270;2022-12-16T08:42:05;3.63;;;1.10;;
47053;SDS011;32811;52.382;5.270;2022-12-16T08:44:51;3.42;;;1.33;;
47053;SDS011;32811;52.382;5.270;2022-12-16T08:47:36;3.38;;;2.05;;
47053;SDS011;32811;52.382;5.270;2022-12-16T08:50:31;2.78;;;1.75;;
47053;SDS011;32811;52.382;5.270;2022-12-16T08:53:16;4.97;;;1.95;;
47053;SDS011;32811;52.382;5.270;2022-12-16T08:58:47;4.50;;;1.48;;
47053;SDS011;32811;52.382;5.270;2022-12-16T09:01:32;4.93;;;1.83;;
47053;SDS011;32811;52.382;5.270;2022-12-16T09:04:20;4.82;;;1.70;;
47053;SDS011;32811;52.382;5.270;2022-12-16T09:09:51;3.00;;;0.88;;
47053;SDS011;32811;52.382;5.270;2022-12-16T09:12:36;3.67;;;3.03;;
47053;SDS011;32811;52.382;5.270;2022-12-16T09:15:21;2.83;;;1.58;;
47053;SDS011;32811;52.382;5.270;2022-12-16T09:18:06;4.95;;;2.20;;
47053;SDS011;32811;52.382;5.270;2022-12-16T09:20:51;6.65;;;2.00;;
47053;SDS011;32811;52.382;5.270;2022-12-16T09:23:36;3.00;;;2.53;;
47053;SDS011;32811;52.382;5.270;2022-12-16T09:29:20;4.85;;;2.60;;
47053;SDS011;32811;52.382;5.270;2022-12-16T09:32:10;5.72;;;2.35;;
47053;SDS011;32811;52.382;5.270;2022-12-16T09:37:49;5.13;;;2.50;;
47053;SDS011;32811;52.382;5.270;2022-12-16T09:40:36;4.00;;;2.60;;
47053;SDS011;32811;52.382;5.270;2022-12-16T09:43:42;4.53;;;2.40;;
47053;SDS011;32811;52.382;5.270;2022-12-16T09:49:47;4.70;;;1.77;;
47053;SDS011;32811;52.382;5.270;2022-12-16T09:52:41;6.50;;;2.30;;
47053;SDS011;32811;52.382;5.270;2022-12-16T09:55:40;3.03;;;1.67;;
47053;SDS011;32811;52.382;5.270;2022-12-16T09:58:29;8.50;;;2.78;;
47053;SDS011;32811;52.382;5.270;2022-12-16T10:01:20;6.03;;;2.90;;
47053;SDS011;32811;52.382;5.270;2022-12-16T10:04:06;4.93;;;2.13;;
47053;SDS011;32811;52.382;5.270;2022-12-16T10:06:51;3.22;;;2.35;;
47053;SDS011;32811;52.382;5.270;2022-12-16T10:16:10;3.10;;;2.08;;
47053;SDS011;32811;52.382;5.270;2022-12-16T10:24:47;3.55;;;2.47;;
47053;SDS011;32811;52.382;5.270;2022-12-16T10:27:46;6.22;;;3.47;;
47053;SDS011;32811;52.382;5.270;2022-12-16T10:30:35;5.43;;;3.85;;
47053;SDS011;32811;52.382;5.270;2022-12-16T10:33:23;6.97;;;3.15;;
47053;SDS011;32811;52.382;5.270;2022-12-16T10:36:16;8.65;;;4.10;;
47053;SDS011;32811;52.382;5.270;2022-12-16T10:39:18;15.38;;;4.70;;
47053;SDS011;32811;52.382;5.270;2022-12-16T10:42:05;8.63;;;4.35;;
47053;SDS011;32811;52.382;5.270;2022-12-16T10:45:04;9.80;;;5.60;;
47053;SDS011;32811;52.382;5.270;2022-12-16T10:48:01;7.47;;;4.55;;
47053;SDS011;32811;52.382;5.270;2022-12-16T10:53:32;9.23;;;4.50;;
47053;SDS011;32811;52.382;5.270;2022-12-16T10:59:18;11.00;;;5.70;;
47053;SDS011;32811;52.382;5.270;2022-12-16T11:08:29;9.98;;;6.55;;
47053;SDS011;32811;52.382;5.270;2022-12-16T11:11:23;13.43;;;7.78;;
47053;SDS011;32811;52.382;5.270;2022-12-16T11:14:30;11.82;;;8.60;;
47053;SDS011;32811;52.382;5.270;2022-12-16T11:18:00;14.13;;;8.25;;
47053;SDS011;32811;52.382;5.270;2022-12-16T11:21:02;16.10;;;10.20;;
47053;SDS011;32811;52.382;5.270;2022-12-16T11:24:03;17.13;;;10.38;;
47053;SDS011;32811;52.382;5.270;2022-12-16T11:26:52;17.13;;;11.02;;
47053;SDS011;32811;52.382;5.270;2022-12-16T11:29:49;19.60;;;12.23;;
47053;SDS011;32811;52.382;5.270;2022-12-16T11:32:49;14.52;;;10.35;;
47053;SDS011;32811;52.382;5.270;2022-12-16T11:35:38;22.83;;;11.67;;
47053;SDS011;32811;52.382;5.270;2022-12-16T11:38:30;17.40;;;12.63;;
47053;SDS011;32811;52.382;5.270;2022-12-16T11:41:28;18.02;;;11.82;;
47053;SDS011;32811;52.382;5.270;2022-12-16T11:44:29;20.35;;;12.60;;
47053;SDS011;32811;52.382;5.270;2022-12-16T11:50:20;19.45;;;13.15;;
47053;SDS011;32811;52.382;5.270;2022-12-16T11:56:22;21.70;;;13.68;;
47053;SDS011;32811;52.382;5.270;2022-12-16T11:59:16;18.10;;;13.00;;
47053;SDS011;32811;52.382;5.270;2022-12-16T12:02:31;20.92;;;14.20;;
47053;SDS011;32811;52.382;5.270;2022-12-16T12:11:49;23.73;;;13.70;;
47053;SDS011;32811;52.382;5.270;2022-12-16T12:17:45;20.80;;;14.38;;
47053;SDS011;32811;52.382;5.270;2022-12-16T12:20:46;19.25;;;13.75;;
47053;SDS011;32811;52.382;5.270;2022-12-16T12:26:40;21.52;;;13.88;;
47053;SDS011;32811;52.382;5.270;2022-12-16T12:35:52;19.40;;;14.05;;
47053;SDS011;32811;52.382;5.270;2022-12-16T12:38:52;24.92;;;16.08;;
47053;SDS011;32811;52.382;5.270;2022-12-16T12:42:07;23.17;;;14.50;;
47053;SDS011;32811;52.382;5.270;2022-12-16T12:45:23;20.38;;;13.95;;
47053;SDS011;32811;52.382;5.270;2022-12-16T12:51:16;26.10;;;15.68;;
47053;SDS011;32811;52.382;5.270;2022-12-16T12:57:20;20.27;;;14.07;;
47053;SDS011;32811;52.382;5.270;2022-12-16T13:00:17;19.30;;;13.80;;
47053;SDS011;32811;52.382;5.270;2022-12-16T13:06:00;24.73;;;13.52;;
47053;SDS011;32811;52.382;5.270;2022-12-16T13:11:35;20.30;;;12.18;;
47053;SDS011;32811;52.382;5.270;2022-12-16T13:17:17;17.23;;;11.60;;
47053;SDS011;32811;52.382;5.270;2022-12-16T13:23:29;23.30;;;12.90;;
47053;SDS011;32811;52.382;5.270;2022-12-16T13:26:17;18.63;;;11.77;;
47053;SDS011;32811;52.382;5.270;2022-12-16T13:29:23;17.27;;;11.57;;
47053;SDS011;32811;52.382;5.270;2022-12-16T13:37:54;17.88;;;11.65;;
47053;SDS011;32811;52.382;5.270;2022-12-16T13:43:47;22.77;;;12.25;;
47053;SDS011;32811;52.382;5.270;2022-12-16T13:58:49;16.70;;;10.05;;
47053;SDS011;32811;52.382;5.270;2022-12-16T14:04:36;13.20;;;8.05;;
47053;SDS011;32811;52.382;5.270;2022-12-16T14:07:29;11.82;;;7.97;;
47053;SDS011;32811;52.382;5.270;2022-12-16T14:13:30;9.27;;;6.10;;
47053;SDS011;32811;52.382;5.270;2022-12-16T14:19:31;12.50;;;6.60;;
47053;SDS011;32811;52.382;5.270;2022-12-16T14:25:23;7.88;;;6.13;;
47053;SDS011;32811;52.382;5.270;2022-12-16T14:31:20;9.27;;;5.97;;
47053;SDS011;32811;52.382;5.270;2022-12-16T14:34:14;9.15;;;5.55;;
47053;SDS011;32811;52.382;5.270;2022-12-16T14:43:12;11.95;;;6.95;;
47053;SDS011;32811;52.382;5.270;2022-12-16T14:46:00;11.35;;;7.22;;
47053;SDS011;32811;52.382;5.270;2022-12-16T14:48:45;12.90;;;8.13;;
47053;SDS011;32811;52.382;5.270;2022-12-16T14:51:33;11.90;;;7.03;;
47053;SDS011;32811;52.382;5.270;2022-12-16T14:54:35;10.85;;;7.15;;
47053;SDS011;32811;52.382;5.270;2022-12-16T14:57:23;10.50;;;8.02;;
47053;SDS011;32811;52.382;5.270;2022-12-16T15:00:12;16.88;;;7.78;;
47053;SDS011;32811;52.382;5.270;2022-12-16T15:06:17;13.02;;;8.13;;
47053;SDS011;32811;52.382;5.270;2022-12-16T15:09:11;11.65;;;8.07;;
47053;SDS011;32811;52.382;5.270;2022-12-16T15:12:02;15.48;;;8.75;;
47053;SDS011;32811;52.382;5.270;2022-12-16T15:14:48;13.27;;;8.48;;
47053;SDS011;32811;52.382;5.270;2022-12-16T15:17:54;17.10;;;10.68;;
47053;SDS011;32811;52.382;5.270;2022-12-16T15:20:50;12.07;;;9.60;;
47053;SDS011;32811;52.382;5.270;2022-12-16T15:23:41;19.80;;;11.02;;
47053;SDS011;32811;52.382;5.270;2022-12-16T15:26:29;17.92;;;11.40;;
47053;SDS011;32811;52.382;5.270;2022-12-16T15:29:49;21.73;;;11.70;;
47053;SDS011;32811;52.382;5.270;2022-12-16T15:32:29;16.92;;;11.88;;
47053;SDS011;32811;52.382;5.270;2022-12-16T15:38:31;18.17;;;12.57;;
47053;SDS011;32811;52.382;5.270;2022-12-16T15:41:34;19.50;;;12.93;;
47053;SDS011;32811;52.382;5.270;2022-12-16T15:44:22;15.98;;;11.13;;
47053;SDS011;32811;52.382;5.270;2022-12-16T15:50:21;21.85;;;13.20;;
47053;SDS011;32811;52.382;5.270;2022-12-16T15:53:31;17.13;;;11.70;;
47053;SDS011;32811;52.382;5.270;2022-12-16T15:56:21;19.90;;;12.68;;
47053;SDS011;32811;52.382;5.270;2022-12-16T15:59:13;21.73;;;12.57;;
47053;SDS011;32811;52.382;5.270;2022-12-16T16:02:03;19.83;;;12.52;;
47053;SDS011;32811;52.382;5.270;2022-12-16T16:04:52;16.38;;;12.10;;
47053;SDS011;32811;52.382;5.270;2022-12-16T16:07:37;21.52;;;13.70;;
47053;SDS011;32811;52.382;5.270;2022-12-16T16:10:28;16.92;;;10.70;;
47053;SDS011;32811;52.382;5.270;2022-12-16T16:15:59;15.57;;;8.48;;
47053;SDS011;32811;52.382;5.270;2022-12-16T16:18:47;19.45;;;10.95;;
47053;SDS011;32811;52.382;5.270;2022-12-16T16:21:32;16.67;;;12.20;;
47053;SDS011;32811;52.382;5.270;2022-12-16T16:24:17;24.63;;;11.77;;
47053;SDS011;32811;52.382;5.270;2022-12-16T16:29:49;19.33;;;12.68;;
47053;SDS011;32811;52.382;5.270;2022-12-16T16:32:34;16.38;;;11.43;;
47053;SDS011;32811;52.382;5.270;2022-12-16T16:35:19;16.48;;;11.18;;
47053;SDS011;32811;52.382;5.270;2022-12-16T16:38:03;15.65;;;8.70;;
47053;SDS011;32811;52.382;5.270;2022-12-16T16:40:59;15.32;;;10.43;;
47053;SDS011;32811;52.382;5.270;2022-12-16T16:43:44;18.65;;;12.20;;
47053;SDS011;32811;52.382;5.270;2022-12-16T16:46:30;23.35;;;12.57;;
47053;SDS011;32811;52.382;5.270;2022-12-16T16:49:27;18.02;;;12.65;;
47053;SDS011;32811;52.382;5.270;2022-12-16T16:52:16;20.30;;;12.77;;
47053;SDS011;32811;52.382;5.270;2022-12-16T16:55:03;17.92;;;12.07;;
47053;SDS011;32811;52.382;5.270;2022-12-16T16:57:50;20.40;;;13.57;;
47053;SDS011;32811;52.382;5.270;2022-12-16T17:03:20;23.80;;;13.15;;
47053;SDS011;32811;52.382;5.270;2022-12-16T17:06:07;19.05;;;11.88;;
47053;SDS011;32811;52.382;5.270;2022-12-16T17:08:52;21.90;;;14.88;;
47053;SDS011;32811;52.382;5.270;2022-12-16T17:11:37;16.98;;;12.68;;
47053;SDS011;32811;52.382;5.270;2022-12-16T17:14:23;20.40;;;13.88;;
47053;SDS011;32811;52.382;5.270;2022-12-16T17:17:08;17.23;;;12.68;;
47053;SDS011;32811;52.382;5.270;2022-12-16T17:20:14;21.42;;;14.50;;
47053;SDS011;32811;52.382;5.270;2022-12-16T17:23:00;20.02;;;13.55;;
47053;SDS011;32811;52.382;5.270;2022-12-16T17:25:46;24.15;;;15.02;;
47053;SDS011;32811;52.382;5.270;2022-12-16T17:28:32;21.45;;;13.70;;
47053;SDS011;32811;52.382;5.270;2022-12-16T17:31:17;12.73;;;9.15;;
47053;SDS011;32811;52.382;5.270;2022-12-16T17:34:02;20.00;;;14.18;;
47053;SDS011;32811;52.382;5.270;2022-12-16T17:36:47;16.65;;;10.02;;
47053;SDS011;32811;52.382;5.270;2022-12-16T17:39:32;19.05;;;13.07;;
47053;SDS011;32811;52.382;5.270;2022-12-16T17:42:17;19.63;;;14.15;;
47053;SDS011;32811;52.382;5.270;2022-12-16T17:45:12;20.58;;;14.68;;
47053;SDS011;32811;52.382;5.270;2022-12-16T17:47:57;21.75;;;14.05;;
47053;SDS011;32811;52.382;5.270;2022-12-16T17:50:42;25.92;;;15.05;;
47053;SDS011;32811;52.382;5.270;2022-12-16T17:53:37;24.83;;;14.90;;
47053;SDS011;32811;52.382;5.270;2022-12-16T17:56:29;24.40;;;14.65;;
47053;SDS011;32811;52.382;5.270;2022-12-16T17:59:14;25.40;;;14.10;;
47053;SDS011;32811;52.382;5.270;2022-12-16T18:02:19;17.23;;;10.63;;
47053;SDS011;32811;52.382;5.270;2022-12-16T18:05:06;19.92;;;12.98;;
47053;SDS011;32811;52.382;5.270;2022-12-16T18:07:57;21.95;;;13.15;;
47053;SDS011;32811;52.382;5.270;2022-12-16T18:10:42;19.13;;;12.35;;
47053;SDS011;32811;52.382;5.270;2022-12-16T18:13:27;18.80;;;12.82;;
47053;SDS011;32811;52.382;5.270;2022-12-16T18:16:12;18.85;;;13.18;;
47053;SDS011;32811;52.382;5.270;2022-12-16T18:18:57;20.17;;;13.23;;
47053;SDS011;32811;52.382;5.270;2022-12-16T18:21:43;18.92;;;13.30;;
47053;SDS011;32811;52.382;5.270;2022-12-16T18:24:28;19.52;;;12.82;;
47053;SDS011;32811;52.382;5.270;2022-12-16T18:29:59;15.32;;;10.68;;
47053;SDS011;32811;52.382;5.270;2022-12-16T18:33:02;20.77;;;13.18;;
47053;SDS011;32811;52.382;5.270;2022-12-16T18:38:32;20.90;;;12.73;;
47053;SDS011;32811;52.382;5.270;2022-12-16T18:41:18;27.45;;;14.00;;
47053;SDS011;32811;52.382;5.270;2022-12-16T18:44:05;24.50;;;14.48;;
47053;SDS011;32811;52.382;5.270;2022-12-16T18:46:53;18.10;;;12.00;;
47053;SDS011;32811;52.382;5.270;2022-12-16T18:49:39;20.15;;;13.52;;
47053;SDS011;32811;52.382;5.270;2022-12-16T18:52:24;14.40;;;9.50;;
47053;SDS011;32811;52.382;5.270;2022-12-16T18:55:09;23.08;;;14.02;;
47053;SDS011;32811;52.382;5.270;2022-12-16T18:57:54;23.80;;;13.57;;
47053;SDS011;32811;52.382;5.270;2022-12-16T19:01:06;20.73;;;13.30;;
47053;SDS011;32811;52.382;5.270;2022-12-16T19:03:54;21.23;;;14.77;;
47053;SDS011;32811;52.382;5.270;2022-12-16T19:06:41;27.08;;;16.42;;
47053;SDS011;32811;52.382;5.270;2022-12-16T19:12:11;31.27;;;17.13;;
47053;SDS011;32811;52.382;5.270;2022-12-16T19:14:56;25.42;;;14.65;;
47053;SDS011;32811;52.382;5.270;2022-12-16T19:17:42;33.67;;;19.05;;
47053;SDS011;32811;52.382;5.270;2022-12-16T19:20:27;38.50;;;21.05;;
47053;SDS011;32811;52.382;5.270;2022-12-16T19:23:13;35.63;;;20.17;;
47053;SDS011;32811;52.382;5.270;2022-12-16T19:25:59;34.35;;;20.50;;
47053;SDS011;32811;52.382;5.270;2022-12-16T19:28:44;37.53;;;21.13;;
47053;SDS011;32811;52.382;5.270;2022-12-16T19:34:15;38.67;;;19.75;;
47053;SDS011;32811;52.382;5.270;2022-12-16T19:37:00;45.45;;;24.73;;
47053;SDS011;32811;52.382;5.270;2022-12-16T19:39:45;43.00;;;23.42;;
47053;SDS011;32811;52.382;5.270;2022-12-16T19:42:30;42.13;;;21.52;;
47053;SDS011;32811;52.382;5.270;2022-12-16T19:45:16;41.55;;;22.73;;
47053;SDS011;32811;52.382;5.270;2022-12-16T19:50:56;41.10;;;22.20;;
47053;SDS011;32811;52.382;5.270;2022-12-16T19:53:42;43.58;;;24.00;;